Ben Bolt, Texas
Current Conditions -  °F | °C
As of 5:53 AM on Saturday 25 Oct 2014 (Local Time) from KALI Reporting Station
Clear Clear  
Wind Chill: 64°   Ceiling: Unl
Heat Index: 64°   Visibility: 10mi
Dew Point: 59°   Wind: 5mph
Humidity: 84%   Direction: 270°W
Pressure: 30.13"   Gusts: NA
Location:  27.65°N, 98.08°W
Report Text: KALI 251053Z AUTO 27004KT 10SM CLR 18/15 A3013 RMK AO2 SLP199 T01780150
Loading
Personal Weather Stations






























Interactive Weather Map New forecast layout! Learn more

10-Day Weather Forecast

Advertisements
Track Severe Weather on mobile